McHenry, IL

1:41 PM CST on February 12, 2016 (GMT -0600)
Pheasant Valley | | Change Station
CLOSE
Current Station
Personal Weather Station
Location: McHenry, IL
Elevation: 768 ft
Nearby Weather Stations
Active Advisory: Wind Chill Advisory

Elev 768 ft 42.35 °N, 88.30 °W | Updated 24 seconds ago

Mostly Cloudy
Mostly Cloudy
20.5 °F
Feels Like 7 °F
N
13.9
Wind Variable Wind from WNW
Gusts 19.9 mph

Today
High -- | Low -- °F
--% Chance of Precip.
Yesterday
High -- | Low -- °F
Precip. -- in
Pressure 30.20 in
Visibility 10.0 miles
Clouds Overcast 3900 ft
Windchill 7 °F
Dew Point -2 °F
Humidity 37%
Rainfall 0.00 in
Snow Depth Not available.
6:54 AM 5:21 PM
Waxing Crescent, 23% visible
METAR KUGN 121855Z 30013G22KT 10SM OVC039 M07/M15 A3013 RMK AO2 SLP225 T10671150
Pressure 30.20 in
Visibility 10.0 miles
Clouds Overcast 3900 ft
Windchill 7 °F
Dew Point -2 °F
Humidity 37%
Rainfall 0.00 in
Snow Depth Not available.
6:54 AM 5:21 PM
Waxing Crescent, 23% visible
METAR KUGN 121855Z 30013G22KT 10SM OVC039 M07/M15 A3013 RMK AO2 SLP225 T10671150

10-Day Weather Forecast

Almanac

Astronomy

Feb. 12, 2016 Rise Set
Actual Time
Civil Twilight
Nautical Twilight
Astronomical Twilight
Moon
Length of Visible Light
Length of Day
Tomorrow will be .
, % of the Moon is Illuminated

Today's Extremes

State Highs State Lows

Community

WunderPhotos

Upload Photos

1,892,381 photos uploaded!

WunderBlog® & News

Nearby

Air Quality

  Air Quality AQ Index Pollutant
Not available.

Snow Depth

Station Depth Elevation

Earthquake Activity

City Distance Mag. Time & Date
Minimum magnitude displayed is 2.5.

Coastal Water Temperatures

Place Temperature

Stations

Nearby Weather Stations

Station Location Temp. Windchill Dew Point Humidity Wind Precip. Elev Updated Type
                   

Watches & Warnings

Wind Chill Advisory
Issued: 9:35 AM CST Feb. 12, 2016 – National Weather Service

... Wind Chill Advisory remains in effect from midnight tonight to
9 am CST Saturday...

* wind chill values... around 20 below zero.

* Other impacts... bitter cold wind chills can cause frostbite to
exposed skin in as little as 30 minutes.

Precautionary/preparedness actions...

A Wind Chill Advisory means that the wind will combine with the
very cold air to generate low wind chills. This will result in
frost bite and lead to hypothermia if precautions are not taken.
If you must venture outdoors... make sure you wear a hat and
gloves.



Beachler